www.cux-wetter.de
Wetterdaten: Dienstag, 21.01.2014
Datum Zeit Temp. A. Feuchte A. Luftdruck Regen Wind Richtung Richtung Sonnenschein Solar Taupunkt Windchill Windben
21.01.2014 00:00 0,8 C 84 % 1010,5 hPa 0,0 l/m 12,8 km/h (3 Bft) O-SO 115 0 min 0 W/m -1,6 C -4,6 C 12,8 km/h (3 Bft)
21.01.2014 00:15 0,9 C 83 % 1010,5 hPa 0,0 l/m 12,4 km/h (2 Bft) O-SO 110 0 min 0 W/m -1,7 C -4,2 C 12,4 km/h (2 Bft)
21.01.2014 00:30 0,9 C 83 % 1010,5 hPa 0,0 l/m 15,9 km/h (3 Bft) O-SO 115 0 min 0 W/m -1,7 C -6,4 C 15,9 km/h (3 Bft)
21.01.2014 00:45 0,9 C 83 % 1010,5 hPa 0,0 l/m 14,2 km/h (3 Bft) O-SO 110 0 min 0 W/m -1,7 C -5,4 C 14,2 km/h (3 Bft)
21.01.2014 00:59 0,8 C 84 % 1010,5 hPa 0,0 l/m 11,8 km/h (2 Bft) O-SO 115 0 min 0 W/m -1,6 C -3,9 C 11,8 km/h (2 Bft)
21.01.2014 01:15 0,9 C 84 % 1010,5 hPa 0,0 l/m 2,4 km/h (1 Bft) O 90 0 min 0 W/m -1,5 C 0,9 C 2,4 km/h (1 Bft)
21.01.2014 01:30 0,8 C 84 % 1010,5 hPa 0,0 l/m 10,6 km/h (2 Bft) O-SO 105 0 min 0 W/m -1,6 C -3,0 C 10,6 km/h (2 Bft)
21.01.2014 01:45 0,9 C 85 % 1010,5 hPa 0,0 l/m 10,0 km/h (2 Bft) O-SO 105 0 min 0 W/m -1,3 C -2,5 C 10,0 km/h (2 Bft)
21.01.2014 02:00 0,9 C 85 % 1010,5 hPa 0,0 l/m 13,1 km/h (3 Bft) O-SO 110 0 min 0 W/m -1,3 C -4,7 C 13,1 km/h (3 Bft)
21.01.2014 02:15 0,9 C 85 % 1010,5 hPa 0,0 l/m 4,1 km/h (1 Bft) O 95 0 min 0 W/m -1,3 C 0,9 C 4,1 km/h (1 Bft)
21.01.2014 02:30 0,9 C 85 % 1010,5 hPa 0,0 l/m 11,0 km/h (2 Bft) O 100 0 min 0 W/m -1,3 C -3,2 C 11,0 km/h (2 Bft)
21.01.2014 02:45 0,9 C 85 % 1010,5 hPa 0,0 l/m 6,2 km/h (2 Bft) O-NO 70 0 min 0 W/m -1,3 C 0,9 C 6,2 km/h (2 Bft)
21.01.2014 03:00 0,8 C 85 % 1010,5 hPa 0,0 l/m 10,3 km/h (2 Bft) O-NO 75 0 min 0 W/m -1,4 C -2,8 C 10,3 km/h (2 Bft)
21.01.2014 03:15 0,8 C 85 % 1010,5 hPa 0,0 l/m 15,1 km/h (3 Bft) O 90 0 min 0 W/m -1,4 C -6,1 C 15,1 km/h (3 Bft)
21.01.2014 03:30 0,8 C 85 % 1010,5 hPa 0,0 l/m 12,2 km/h (2 Bft) O 95 0 min 0 W/m -1,4 C -4,2 C 12,2 km/h (2 Bft)
21.01.2014 03:45 0,8 C 85 % 1010,5 hPa 0,0 l/m 10,5 km/h (2 Bft) O 95 0 min 0 W/m -1,4 C -3,0 C 10,5 km/h (2 Bft)
21.01.2014 04:00 0,8 C 85 % 1010,5 hPa 0,0 l/m 11,3 km/h (2 Bft) O 80 0 min 0 W/m -1,4 C -3,6 C 11,3 km/h (2 Bft)
21.01.2014 04:15 0,8 C 85 % 1010,5 hPa 0,0 l/m 10,8 km/h (2 Bft) O 95 0 min 0 W/m -1,4 C -3,2 C 10,8 km/h (2 Bft)
21.01.2014 04:30 0,9 C 84 % 1010,5 hPa 0,0 l/m 9,8 km/h (2 Bft) O-SO 115 0 min 0 W/m -1,5 C -2,3 C 9,8 km/h (2 Bft)
21.01.2014 04:45 0,9 C 84 % 1010,5 hPa 0,0 l/m 10,1 km/h (2 Bft) O 80 0 min 0 W/m -1,5 C -2,5 C 10,1 km/h (2 Bft)
21.01.2014 05:00 0,9 C 84 % 1010,5 hPa 0,0 l/m 10,3 km/h (2 Bft) O-NO 75 0 min 0 W/m -1,5 C -2,7 C 10,3 km/h (2 Bft)
21.01.2014 05:15 0,8 C 84 % 1010,5 hPa 0,0 l/m 8,7 km/h (2 Bft) O 80 0 min 0 W/m -1,6 C -1,5 C 8,7 km/h (2 Bft)
21.01.2014 05:30 0,8 C 84 % 1010,5 hPa 0,0 l/m 13,0 km/h (3 Bft) O 95 0 min 0 W/m -1,6 C -4,8 C 13,0 km/h (3 Bft)
21.01.2014 05:45 0,9 C 83 % 1010,5 hPa 0,0 l/m 18,1 km/h (3 Bft) O 80 0 min 0 W/m -1,7 C -7,6 C 18,1 km/h (3 Bft)
21.01.2014 06:00 0,8 C 83 % 1010,5 hPa 0,0 l/m 13,0 km/h (3 Bft) O 80 0 min 0 W/m -1,8 C -4,8 C 13,0 km/h (3 Bft)
21.01.2014 06:15 1,0 C 83 % 1010,5 hPa 0,0 l/m 14,5 km/h (3 Bft) O 90 0 min 0 W/m -1,6 C -5,5 C 14,5 km/h (3 Bft)
21.01.2014 06:30 1,1 C 84 % 1010,5 hPa 0,0 l/m 1,3 km/h (1 Bft) O-SO 115 0 min 0 W/m -1,3 C 1,1 C 1,3 km/h (1 Bft)
21.01.2014 06:45 1,1 C 84 % 1010,5 hPa 0,0 l/m 1,0 km/h (0 Bft) O-SO 110 0 min 0 W/m -1,3 C 1,1 C 1,0 km/h (0 Bft)
21.01.2014 07:00 1,0 C 83 % 1010,5 hPa 0,0 l/m 8,5 km/h (2 Bft) O 90 0 min 0 W/m -1,6 C -1,1 C 8,5 km/h (2 Bft)
21.01.2014 07:15 1,1 C 84 % 1010,5 hPa 0,0 l/m 1,8 km/h (1 Bft) O-SO 120 0 min 0 W/m -1,3 C 1,1 C 1,8 km/h (1 Bft)
21.01.2014 07:30 1,0 C 83 % 1011,5 hPa 0,0 l/m 1,6 km/h (1 Bft) SO 145 0 min 0 W/m -1,6 C 1,0 C 1,6 km/h (1 Bft)
21.01.2014 07:45 1,0 C 83 % 1011,5 hPa 0,0 l/m 1,9 km/h (1 Bft) O-SO 105 0 min 0 W/m -1,6 C 1,0 C 1,9 km/h (1 Bft)
21.01.2014 08:00 0,9 C 83 % 1011,5 hPa 0,0 l/m 1,6 km/h (1 Bft) O-SO 105 0 min 0 W/m -1,7 C 0,9 C 1,6 km/h (1 Bft)
21.01.2014 08:15 0,8 C 83 % 1011,5 hPa 0,0 l/m 12,4 km/h (2 Bft) O 95 0 min 0 W/m -1,8 C -4,4 C 12,4 km/h (2 Bft)
21.01.2014 08:30 0,7 C 83 % 1011,5 hPa 0,0 l/m 9,2 km/h (2 Bft) O 95 0 min 0 W/m -1,8 C -2,0 C 9,2 km/h (2 Bft)
21.01.2014 08:45 0,9 C 83 % 1011,5 hPa 0,0 l/m 9,0 km/h (2 Bft) O-SO 120 0 min 0 W/m -1,7 C -1,6 C 9,0 km/h (2 Bft)
21.01.2014 09:00 0,7 C 83 % 1011,5 hPa 0,0 l/m 12,2 km/h (2 Bft) O-SO 120 0 min 0 W/m -1,8 C -4,3 C 12,2 km/h (2 Bft)
21.01.2014 09:14 0,6 C 82 % 1011,5 hPa 0,0 l/m 17,5 km/h (3 Bft) O-SO 105 0 min 0 W/m -2,1 C -7,6 C 17,5 km/h (3 Bft)
21.01.2014 09:30 0,7 C 82 % 1011,5 hPa 0,0 l/m 10,5 km/h (2 Bft) O 95 0 min 0 W/m -2,0 C -3,1 C 10,5 km/h (2 Bft)
21.01.2014 09:45 0,7 C 82 % 1011,5 hPa 0,0 l/m 11,5 km/h (2 Bft) O 100 0 min 0 W/m -2,0 C -3,8 C 11,5 km/h (2 Bft)
21.01.2014 10:00 0,7 C 82 % 1011,5 hPa 0,0 l/m 2,4 km/h (1 Bft) O-SO 120 0 min 0 W/m -2,0 C 0,7 C 2,4 km/h (1 Bft)
21.01.2014 10:15 0,8 C 82 % 1012,5 hPa 0,0 l/m 1,9 km/h (1 Bft) SO 145 0 min 0 W/m -1,9 C 0,8 C 1,9 km/h (1 Bft)
21.01.2014 10:30 0,9 C 82 % 1012,5 hPa 0,0 l/m 0,9 km/h (0 Bft) O-SO 105 0 min 0 W/m -1,8 C 0,9 C 0,9 km/h (0 Bft)
21.01.2014 10:44 0,9 C 81 % 1012,5 hPa 0,0 l/m 6,7 km/h (2 Bft) S 170 0 min 0 W/m -2,0 C 0,6 C 6,7 km/h (2 Bft)
21.01.2014 11:00 0,9 C 81 % 1012,5 hPa 0,0 l/m 1,3 km/h (1 Bft) S-SO 160 0 min 0 W/m -2,0 C 0,9 C 1,3 km/h (1 Bft)
21.01.2014 11:15 1,0 C 81 % 1012,5 hPa 0,0 l/m 1,3 km/h (1 Bft) O-SO 115 0 min 0 W/m -1,9 C 1,0 C 1,3 km/h (1 Bft)
21.01.2014 11:30 1,1 C 81 % 1012,5 hPa 0,0 l/m 2,8 km/h (1 Bft) S-SO 165 0 min 0 W/m -1,8 C 1,1 C 2,8 km/h (1 Bft)
21.01.2014 11:45 1,1 C 81 % 1012,5 hPa 0,0 l/m 0,6 km/h (0 Bft) S-SO 165 0 min 0 W/m -1,8 C 1,1 C 0,6 km/h (0 Bft)
21.01.2014 12:00 1,1 C 81 % 1012,5 hPa 0,0 l/m 0,4 km/h (0 Bft) S-SO 155 0 min 0 W/m -1,8 C 1,1 C 0,4 km/h (0 Bft)
21.01.2014 12:15 1,1 C 81 % 1011,5 hPa 0,0 l/m 5,7 km/h (2 Bft) O-SO 110 0 min 0 W/m -1,8 C 1,1 C 5,7 km/h (2 Bft)
21.01.2014 12:29 1,0 C 81 % 1011,5 hPa 0,0 l/m 1,6 km/h (1 Bft) O-SO 115 0 min 0 W/m -1,9 C 1,0 C 1,6 km/h (1 Bft)
21.01.2014 12:44 1,0 C 81 % 1011,5 hPa 0,0 l/m 11,5 km/h (2 Bft) SO 125 0 min 0 W/m -1,9 C -3,5 C 11,5 km/h (2 Bft)
21.01.2014 13:00 1,0 C 81 % 1011,5 hPa 0,0 l/m 9,9 km/h (2 Bft) SO 135 0 min 0 W/m -1,9 C -2,3 C 9,9 km/h (2 Bft)
21.01.2014 13:15 0,9 C 81 % 1011,5 hPa 0,0 l/m 11,0 km/h (2 Bft) O 100 0 min 0 W/m -2,0 C -3,2 C 11,0 km/h (2 Bft)
21.01.2014 13:30 1,1 C 81 % 1011,5 hPa 0,0 l/m 7,5 km/h (2 Bft) SO 135 0 min 0 W/m -1,8 C -0,0 C 7,5 km/h (2 Bft)
21.01.2014 13:45 1,0 C 81 % 1011,5 hPa 0,0 l/m 9,2 km/h (2 Bft) O 85 0 min 0 W/m -1,9 C -1,7 C 9,2 km/h (2 Bft)
21.01.2014 13:59 1,1 C 81 % 1011,5 hPa 0,0 l/m 10,5 km/h (2 Bft) O 90 0 min 0 W/m -1,8 C -2,6 C 10,5 km/h (2 Bft)
21.01.2014 14:15 1,1 C 81 % 1011,5 hPa 0,0 l/m 11,8 km/h (2 Bft) O-SO 120 0 min 0 W/m -1,8 C -3,6 C 11,8 km/h (2 Bft)
21.01.2014 14:30 1,1 C 82 % 1011,5 hPa 0,0 l/m 7,0 km/h (2 Bft) O-SO 115 0 min 0 W/m -1,6 C 0,5 C 7,0 km/h (2 Bft)
21.01.2014 14:45 1,0 C 82 % 1011,5 hPa 0,0 l/m 1,2 km/h (1 Bft) O-SO 105 0 min 0 W/m -1,7 C 1,0 C 1,2 km/h (1 Bft)
21.01.2014 15:00 0,9 C 82 % 1011,5 hPa 0,0 l/m 4,8 km/h (1 Bft) O 100 0 min 0 W/m -1,8 C 0,9 C 4,8 km/h (1 Bft)
21.01.2014 15:15 0,9 C 82 % 1011,5 hPa 0,0 l/m 7,8 km/h (2 Bft) SO 130 0 min 0 W/m -1,8 C -0,5 C 7,8 km/h (2 Bft)
21.01.2014 15:30 1,1 C 82 % 1011,5 hPa 0,0 l/m 1,5 km/h (1 Bft) O-SO 105 0 min 0 W/m -1,6 C 1,1 C 1,5 km/h (1 Bft)
21.01.2014 15:45 1,3 C 82 % 1012,5 hPa 0,0 l/m 1,0 km/h (0 Bft) S-SO 150 0 min 0 W/m -1,4 C 1,3 C 1,0 km/h (0 Bft)
21.01.2014 16:00 1,2 C 82 % 1012,5 hPa 0,0 l/m 0,3 km/h (0 Bft) S-SO 165 0 min 0 W/m -1,5 C 1,2 C 0,3 km/h (0 Bft)
21.01.2014 16:15 1,2 C 82 % 1012,5 hPa 0,0 l/m 0,9 km/h (0 Bft) SO 140 0 min 0 W/m -1,5 C 1,2 C 0,9 km/h (0 Bft)
21.01.2014 16:30 1,0 C 82 % 1012,5 hPa 0,0 l/m 1,0 km/h (0 Bft) O-SO 105 0 min 0 W/m -1,7 C 1,0 C 1,0 km/h (0 Bft)
21.01.2014 16:45 1,0 C 82 % 1012,5 hPa 0,0 l/m 1,4 km/h (1 Bft) O-SO 120 0 min 0 W/m -1,7 C 1,0 C 1,4 km/h (1 Bft)
21.01.2014 17:00 0,9 C 82 % 1012,5 hPa 0,0 l/m 6,6 km/h (2 Bft) S-SO 155 0 min 0 W/m -1,8 C 0,7 C 6,6 km/h (2 Bft)
21.01.2014 17:15 1,0 C 82 % 1012,5 hPa 0,0 l/m 0,3 km/h (0 Bft) S-SO 160 0 min 0 W/m -1,7 C 1,0 C 0,3 km/h (0 Bft)
21.01.2014 17:30 0,8 C 82 % 1012,5 hPa 0,0 l/m 2,3 km/h (1 Bft) SO 140 0 min 0 W/m -1,9 C 0,8 C 2,3 km/h (1 Bft)
21.01.2014 17:45 0,9 C 82 % 1012,5 hPa 0,0 l/m 10,9 km/h (2 Bft) S 170 0 min 0 W/m -1,8 C -3,2 C 10,9 km/h (2 Bft)
21.01.2014 18:00 0,9 C 82 % 1012,5 hPa 0,0 l/m 5,9 km/h (2 Bft) S 170 0 min 0 W/m -1,8 C 0,9 C 5,9 km/h (2 Bft)
21.01.2014 18:15 0,9 C 82 % 1012,5 hPa 0,0 l/m 5,7 km/h (2 Bft) S-SO 155 0 min 0 W/m -1,8 C 0,9 C 5,7 km/h (2 Bft)
21.01.2014 18:30 0,9 C 82 % 1012,5 hPa 0,0 l/m 6,7 km/h (2 Bft) S-SO 165 0 min 0 W/m -1,8 C 0,6 C 6,7 km/h (2 Bft)
21.01.2014 18:45 0,9 C 83 % 1012,5 hPa 0,0 l/m 1,2 km/h (1 Bft) O-SO 120 0 min 0 W/m -1,7 C 0,9 C 1,2 km/h (1 Bft)
21.01.2014 19:00 0,9 C 83 % 1012,5 hPa 0,0 l/m 1,3 km/h (1 Bft) S-SO 155 0 min 0 W/m -1,7 C 0,9 C 1,3 km/h (1 Bft)
21.01.2014 19:15 0,8 C 83 % 1012,5 hPa 0,0 l/m 1,4 km/h (1 Bft) S-SO 160 0 min 0 W/m -1,8 C 0,8 C 1,4 km/h (1 Bft)
21.01.2014 19:30 0,8 C 83 % 1012,5 hPa 0,0 l/m 6,3 km/h (2 Bft) SO 140 0 min 0 W/m -1,8 C 0,8 C 6,3 km/h (2 Bft)
21.01.2014 19:45 0,8 C 83 % 1013,5 hPa 0,0 l/m 8,5 km/h (2 Bft) SO 135 0 min 0 W/m -1,8 C -1,3 C 8,5 km/h (2 Bft)
21.01.2014 20:00 0,8 C 83 % 1012,5 hPa 0,0 l/m 0,9 km/h (0 Bft) S 170 0 min 0 W/m -1,8 C 0,8 C 0,9 km/h (0 Bft)
21.01.2014 20:14 0,9 C 83 % 1012,5 hPa 0,0 l/m 0,9 km/h (0 Bft) SO 140 0 min 0 W/m -1,7 C 0,9 C 0,9 km/h (0 Bft)
21.01.2014 20:30 0,9 C 83 % 1013,5 hPa 0,0 l/m 1,3 km/h (1 Bft) SO 140 0 min 0 W/m -1,7 C 0,9 C 1,3 km/h (1 Bft)
21.01.2014 20:45 0,8 C 83 % 1013,5 hPa 0,0 l/m 5,9 km/h (2 Bft) SO 140 0 min 0 W/m -1,8 C 0,8 C 5,9 km/h (2 Bft)
21.01.2014 21:00 0,8 C 83 % 1013,5 hPa 0,0 l/m 9,0 km/h (2 Bft) S-SO 150 0 min 0 W/m -1,8 C -1,7 C 9,0 km/h (2 Bft)
21.01.2014 21:15 0,8 C 83 % 1013,5 hPa 0,0 l/m 7,7 km/h (2 Bft) S-SO 160 0 min 0 W/m -1,8 C -0,5 C 7,7 km/h (2 Bft)
21.01.2014 21:29 0,7 C 83 % 1013,5 hPa 0,0 l/m 6,8 km/h (2 Bft) S-SO 150 0 min 0 W/m -1,8 C 0,3 C 6,8 km/h (2 Bft)
21.01.2014 21:45 0,8 C 83 % 1013,5 hPa 0,0 l/m 2,3 km/h (1 Bft) SO 130 0 min 0 W/m -1,8 C 0,8 C 2,3 km/h (1 Bft)
21.01.2014 22:00 0,8 C 83 % 1013,5 hPa 0,0 l/m 10,2 km/h (2 Bft) S-SO 160 0 min 0 W/m -1,8 C -2,7 C 10,2 km/h (2 Bft)
21.01.2014 22:15 0,7 C 83 % 1013,5 hPa 0,0 l/m 9,4 km/h (2 Bft) S-SO 155 0 min 0 W/m -1,8 C -2,2 C 9,4 km/h (2 Bft)
21.01.2014 22:30 0,7 C 83 % 1013,5 hPa 0,0 l/m 13,8 km/h (3 Bft) S-SO 150 0 min 0 W/m -1,8 C -5,4 C 13,8 km/h (3 Bft)
21.01.2014 22:44 0,7 C 83 % 1013,5 hPa 0,0 l/m 10,2 km/h (2 Bft) SO 135 0 min 0 W/m -1,8 C -2,8 C 10,2 km/h (2 Bft)
21.01.2014 22:59 0,7 C 83 % 1013,5 hPa 0,0 l/m 7,4 km/h (2 Bft) S-SO 150 0 min 0 W/m -1,8 C -0,3 C 7,4 km/h (2 Bft)
21.01.2014 23:15 0,8 C 83 % 1013,5 hPa 0,0 l/m 10,8 km/h (2 Bft) S 180 0 min 0 W/m -1,8 C -3,2 C 10,8 km/h (2 Bft)
21.01.2014 23:30 0,8 C 83 % 1013,5 hPa 0,0 l/m 9,4 km/h (2 Bft) SO 140 0 min 0 W/m -1,8 C -2,1 C 9,4 km/h (2 Bft)
21.01.2014 23:45 0,7 C 83 % 1013,5 hPa 0,0 l/m 6,3 km/h (2 Bft) SO 140 0 min 0 W/m -1,8 C 0,7 C 6,3 km/h (2 Bft)
_ Min-Zeit 09:14 10:44 00:00 - 16:00 - - - - 09:14 09:14 16:00
Minimum _ 0,6 C 81 % 1010,5 hPa - 0,3 km/h (0 Bft) - - - - -2,1 C -7,6 C 0,3 km/h (0 Bft)
_ Max-Zeit 15:45 01:45 19:45 00:00 05:45 - - 00:00 00:00 06:30 15:45 05:45
Maximum _ 1,3 C 85 % 1013,5 hPa 0,0 l/m 18,1 km/h
O (3 Bft)
- - 0 min 0 W/m -1,3 C 1,3 C 18,1 km/h
O (3 Bft)
Durchschnitt _ 0,9 C 83 % 1011,8 hPa #0,0 l/m 7,1 km/h (2 Bft) O-SO - #0 min. 0 W/m -1,7 C -1,2 C 7,1 km/h (2 Bft)
copyright by Holger Just